createdAt,value
2022-12-14T00:00:00.886Z,44.72
2022-12-14T00:03:03.443Z,47.17
2022-12-14T00:06:18.189Z,45.05
2022-12-14T00:09:20.792Z,40.08
2022-12-14T00:12:26.393Z,42.30
2022-12-14T00:15:28.889Z,32.50
2022-12-14T00:18:31.032Z,39.33
2022-12-14T00:21:35.973Z,31.40
2022-12-14T00:24:38.311Z,36.22
2022-12-14T00:27:46.491Z,37.92
2022-12-14T00:30:49.175Z,36.95
2022-12-14T00:33:53.363Z,37.83
2022-12-14T00:36:56.580Z,34.25
2022-12-14T00:40:00.344Z,33.95
2022-12-14T00:43:02.583Z,32.50
2022-12-14T00:46:05.335Z,37.75
2022-12-14T00:49:10.103Z,37.05
2022-12-14T00:52:12.207Z,35.22
2022-12-14T00:55:15.295Z,36.28
2022-12-14T00:58:22.064Z,34.97
2022-12-14T01:01:24.426Z,40.63
2022-12-14T01:04:29.827Z,29.58
2022-12-14T01:07:33.274Z,36.92
2022-12-14T01:10:41.101Z,31.02
2022-12-14T01:13:43.719Z,33.08
2022-12-14T01:16:47.349Z,33.53
2022-12-14T01:19:50.240Z,33.00
2022-12-14T01:22:59.403Z,31.80
2022-12-14T01:26:04.811Z,37.42
2022-12-14T01:29:09.203Z,36.92
2022-12-14T01:32:11.529Z,46.22
2022-12-14T01:35:14.098Z,39.30
2022-12-14T01:38:16.307Z,38.80
2022-12-14T01:41:47.731Z,39.95
2022-12-14T01:44:57.365Z,33.38
2022-12-14T01:48:03.352Z,34.05
2022-12-14T01:51:05.921Z,33.92
2022-12-14T01:54:13.016Z,39.53
2022-12-14T01:57:17.265Z,32.88
2022-12-14T02:00:20.588Z,38.35
2022-12-14T02:03:29.399Z,32.75
2022-12-14T02:06:38.374Z,38.60
2022-12-14T02:09:42.215Z,34.40
2022-12-14T02:12:49.447Z,34.25
2022-12-14T02:15:52.658Z,35.75
2022-12-14T02:18:55.013Z,37.90
2022-12-14T02:22:18.600Z,36.95
2022-12-14T02:25:27.721Z,37.58
2022-12-14T02:29:07.103Z,31.30
2022-12-14T02:32:40.062Z,32.60
2022-12-14T02:35:44.880Z,36.28
2022-12-14T02:38:55.620Z,38.15
2022-12-14T02:42:09.776Z,39.45
2022-12-14T02:45:24.069Z,38.58
2022-12-14T02:48:33.252Z,42.03
2022-12-14T02:51:57.057Z,37.78
2022-12-14T02:55:18.088Z,41.65
2022-12-14T02:58:34.173Z,37.10
2022-12-14T03:01:39.973Z,36.25
2022-12-14T03:04:47.776Z,38.40
2022-12-14T03:08:08.982Z,39.65
2022-12-14T03:11:16.339Z,45.22
2022-12-14T03:14:28.850Z,35.67
2022-12-14T03:17:34.717Z,39.13
2022-12-14T03:20:39.240Z,40.13
2022-12-14T03:23:44.147Z,47.65
2022-12-14T03:26:59.548Z,43.13
2022-12-14T03:30:12.790Z,47.42
2022-12-14T03:33:18.887Z,49.22
2022-12-14T03:36:42.765Z,50.22
2022-12-14T03:39:47.807Z,61.95
2022-12-14T03:42:56.127Z,64.30
2022-12-14T03:46:03.377Z,70.07
2022-12-14T03:49:28.376Z,64.80
2022-12-14T03:53:04.122Z,70.82
2022-12-14T03:56:33.003Z,65.25
2022-12-14T03:59:47.539Z,54.45
2022-12-14T04:03:27.729Z,54.92
2022-12-14T04:06:40.882Z,75.72
2022-12-14T04:10:02.131Z,72.07
2022-12-14T04:13:28.027Z,73.70
2022-12-14T04:16:56.208Z,61.00
2022-12-14T04:20:09.821Z,50.67
2022-12-14T04:23:42.852Z,65.40
2022-12-14T04:26:53.527Z,57.45
2022-12-14T04:29:57.502Z,64.70
2022-12-14T04:33:27.133Z,63.35
2022-12-14T04:36:51.646Z,69.90
2022-12-14T04:40:05.521Z,78.10
2022-12-14T04:43:15.034Z,64.07
2022-12-14T04:46:25.308Z,72.97
2022-12-14T04:49:36.819Z,71.88
2022-12-14T04:52:47.161Z,69.70
2022-12-14T04:55:55.154Z,71.95
2022-12-14T04:58:57.443Z,68.72
2022-12-14T05:02:21.121Z,69.35
2022-12-14T05:05:30.850Z,61.25
2022-12-14T05:08:56.066Z,59.50
2022-12-14T05:12:18.301Z,70.00
2022-12-14T05:15:30.456Z,76.07
2022-12-14T05:18:39.013Z,56.75
2022-12-14T05:21:51.069Z,60.97
2022-12-14T05:24:53.244Z,52.85
2022-12-14T05:27:55.373Z,59.03
2022-12-14T05:30:57.529Z,54.90
2022-12-14T05:33:59.561Z,55.50
2022-12-14T05:37:01.577Z,53.03
2022-12-14T05:40:04.227Z,62.38
2022-12-14T05:43:12.372Z,52.40
2022-12-14T05:46:14.553Z,67.07
2022-12-14T05:49:16.693Z,51.60
2022-12-14T05:52:19.040Z,65.53
2022-12-14T05:55:21.398Z,49.10
2022-12-14T05:58:23.336Z,50.53
2022-12-14T06:01:25.548Z,64.65
2022-12-14T06:04:27.713Z,59.00
2022-12-14T06:07:29.776Z,54.92
2022-12-14T06:10:31.810Z,65.82
2022-12-14T06:13:33.896Z,76.40
2022-12-14T06:16:37.328Z,69.97
2022-12-14T06:19:39.607Z,64.22
2022-12-14T06:22:47.413Z,61.70
2022-12-14T06:25:56.554Z,84.68
2022-12-14T06:32:10.165Z,77.43
2022-12-14T06:35:12.338Z,75.18
2022-12-14T06:38:15.031Z,84.07
2022-12-14T06:41:19.134Z,87.43
2022-12-14T06:44:21.311Z,80.30
2022-12-14T06:47:23.605Z,88.47
2022-12-14T06:50:29.867Z,79.75
2022-12-14T06:53:33.665Z,84.80
2022-12-14T06:56:35.812Z,79.07
2022-12-14T06:59:44.525Z,91.60
2022-12-14T07:02:47.654Z,111.25
2022-12-14T07:05:56.624Z,94.57
2022-12-14T07:09:14.828Z,92.90
2022-12-14T07:12:19.658Z,83.25
2022-12-14T07:15:21.762Z,89.85
2022-12-14T07:18:24.700Z,86.95
2022-12-14T07:21:27.690Z,88.10
2022-12-14T07:24:30.336Z,72.35
2022-12-14T07:27:33.081Z,77.78
2022-12-14T07:30:35.201Z,83.35
2022-12-14T07:33:37.637Z,82.00
2022-12-14T07:36:39.801Z,71.80
2022-12-14T07:39:41.817Z,77.57
2022-12-14T07:42:55.609Z,73.65
2022-12-14T07:46:16.389Z,81.05
2022-12-14T07:49:21.878Z,71.03
2022-12-14T07:52:37.175Z,68.32
2022-12-14T07:56:08.629Z,59.22
2022-12-14T07:59:25.665Z,63.17
2022-12-14T08:02:41.059Z,68.28
2022-12-14T08:05:43.304Z,66.05
2022-12-14T08:08:45.944Z,55.13
2022-12-14T08:11:48.846Z,58.97
2022-12-14T08:14:51.900Z,56.00
2022-12-14T08:17:56.651Z,42.88
2022-12-14T08:20:58.984Z,68.80
2022-12-14T08:24:01.488Z,51.25
2022-12-14T08:27:04.278Z,42.67
2022-12-14T08:30:08.599Z,37.08
2022-12-14T08:33:10.824Z,42.58
2022-12-14T08:36:21.711Z,38.50
2022-12-14T08:39:25.044Z,38.17
2022-12-14T08:42:27.253Z,34.95
2022-12-14T08:45:29.386Z,28.33
2022-12-14T08:48:31.648Z,33.40
2022-12-14T08:51:37.329Z,29.52
2022-12-14T08:54:39.347Z,38.20
2022-12-14T08:57:41.541Z,32.22
2022-12-14T09:00:43.624Z,32.28
2022-12-14T09:03:47.048Z,32.97
2022-12-14T09:06:49.106Z,31.00
2022-12-14T09:09:51.305Z,33.80
2022-12-14T09:12:53.369Z,30.00
2022-12-14T09:16:06.949Z,31.08
2022-12-14T09:19:09.103Z,36.20
2022-12-14T09:22:11.627Z,27.90
2022-12-14T09:25:13.929Z,29.58
2022-12-14T09:28:16.044Z,29.63
2022-12-14T09:31:21.143Z,25.13
2022-12-14T09:34:23.909Z,33.60
2022-12-14T09:37:26.289Z,26.90
2022-12-14T09:40:32.760Z,26.77
2022-12-14T09:43:43.820Z,21.52
2022-12-14T09:46:45.956Z,24.08
2022-12-14T09:49:57.523Z,19.13
2022-12-14T09:53:07.124Z,19.98
2022-12-14T09:56:14.921Z,19.13
2022-12-14T09:59:18.618Z,16.00
2022-12-14T10:02:38.223Z,18.02
2022-12-14T10:05:54.756Z,22.92
2022-12-14T10:09:03.675Z,19.38
2022-12-14T10:12:34.089Z,13.48
2022-12-14T10:15:58.005Z,16.92
2022-12-14T10:19:10.489Z,17.65
2022-12-14T10:22:36.428Z,15.18
2022-12-14T10:25:40.374Z,18.23
2022-12-14T10:29:00.731Z,22.67
2022-12-14T10:32:40.127Z,20.10
2022-12-14T10:35:45.895Z,19.13
2022-12-14T10:39:29.232Z,14.10
2022-12-14T10:42:58.382Z,20.63
2022-12-14T10:46:14.493Z,15.13
2022-12-14T10:49:30.142Z,17.48
2022-12-14T10:52:40.345Z,12.98
2022-12-14T10:55:46.033Z,19.60
2022-12-14T10:59:15.899Z,14.43
2022-12-14T11:02:40.249Z,17.80
2022-12-14T11:06:05.899Z,12.55
2022-12-14T11:09:24.340Z,17.63
2022-12-14T11:12:28.906Z,14.73
2022-12-14T11:15:47.158Z,14.38
2022-12-14T11:19:00.519Z,15.20
2022-12-14T11:22:17.153Z,14.90
2022-12-14T11:25:49.398Z,14.43
2022-12-14T11:28:56.397Z,13.65
2022-12-14T11:32:08.145Z,15.05
2022-12-14T11:35:17.539Z,11.48
2022-12-14T11:38:30.277Z,14.10
2022-12-14T11:41:42.508Z,13.25
2022-12-14T11:44:46.451Z,12.73
2022-12-14T11:48:20.277Z,16.30
2022-12-14T11:51:22.358Z,10.77
2022-12-14T11:54:24.867Z,13.10
2022-12-14T11:57:35.747Z,12.43
2022-12-14T12:00:49.156Z,12.40
2022-12-14T12:03:58.922Z,11.85
2022-12-14T12:07:13.085Z,17.13
2022-12-14T12:10:34.099Z,13.38
2022-12-14T12:13:40.136Z,14.80
2022-12-14T12:16:44.913Z,12.95
2022-12-14T12:19:51.745Z,17.15
2022-12-14T12:23:02.361Z,18.33
2022-12-14T12:26:15.296Z,17.58
2022-12-14T12:29:43.614Z,16.65
2022-12-14T12:32:52.346Z,13.00
2022-12-14T12:35:56.827Z,15.88
2022-12-14T12:39:08.035Z,12.93
2022-12-14T12:42:31.434Z,15.57
2022-12-14T12:45:43.681Z,18.90
2022-12-14T12:48:52.191Z,15.20
2022-12-14T12:52:00.515Z,14.85
2022-12-14T12:55:14.285Z,17.35
2022-12-14T12:58:30.722Z,12.43
2022-12-14T13:01:35.733Z,18.00
2022-12-14T13:04:41.362Z,10.30
2022-12-14T13:07:45.068Z,14.20
2022-12-14T13:11:24.607Z,12.57
2022-12-14T13:14:19.224Z,20.30
2022-12-14T13:17:33.179Z,14.02
2022-12-14T13:20:36.475Z,17.17
2022-12-14T13:23:46.338Z,19.00
2022-12-14T13:27:17.883Z,14.18
2022-12-14T13:30:29.141Z,13.73
2022-12-14T13:33:55.039Z,16.35
2022-12-14T13:37:18.272Z,17.70
2022-12-14T13:40:32.247Z,17.13
2022-12-14T13:44:04.761Z,16.95
2022-12-14T13:47:15.684Z,14.68
2022-12-14T13:50:39.989Z,17.75
2022-12-14T13:53:50.070Z,16.90
2022-12-14T13:57:08.056Z,15.48
2022-12-14T14:00:45.397Z,16.55
2022-12-14T14:03:51.249Z,13.30
2022-12-14T14:06:55.815Z,9.75
2022-12-14T14:10:04.972Z,11.63
2022-12-14T14:13:28.652Z,12.23
2022-12-14T14:16:43.647Z,13.02
2022-12-14T14:19:49.655Z,13.38
2022-12-14T14:23:17.540Z,13.98
2022-12-14T14:26:23.053Z,16.40
2022-12-14T14:29:30.478Z,22.25
2022-12-14T14:32:44.845Z,14.20
2022-12-14T14:35:49.777Z,15.07
2022-12-14T14:38:56.111Z,15.18
2022-12-14T14:42:03.383Z,13.77
2022-12-14T14:45:11.271Z,15.10
2022-12-14T14:48:50.539Z,15.57
2022-12-14T14:51:53.125Z,22.45
2022-12-14T14:55:43.322Z,15.88
2022-12-14T14:58:35.201Z,18.65
2022-12-14T15:01:48.227Z,16.75
2022-12-14T15:04:57.065Z,14.68
2022-12-14T15:08:22.654Z,14.18
2022-12-14T15:11:28.549Z,11.23
2022-12-14T15:14:36.679Z,12.75
2022-12-14T15:17:39.068Z,14.00
2022-12-14T15:20:41.570Z,16.10
2022-12-14T15:23:50.908Z,13.93
2022-12-14T15:26:54.080Z,13.02
2022-12-14T15:34:04.616Z,14.07
2022-12-14T15:42:34.367Z,17.23
2022-12-14T15:45:44.213Z,13.20
2022-12-14T15:48:46.244Z,16.13
2022-12-14T15:51:50.706Z,15.07
2022-12-14T15:54:53.172Z,16.63
2022-12-14T15:57:55.832Z,19.98
2022-12-14T16:01:27.987Z,15.73
2022-12-14T16:04:31.232Z,12.25
2022-12-14T16:07:42.468Z,16.00
2022-12-14T16:10:46.303Z,13.52
2022-12-14T16:13:50.750Z,11.57
2022-12-14T16:16:55.543Z,19.17
2022-12-14T16:20:20.847Z,13.18
2022-12-14T16:23:33.383Z,15.73
2022-12-14T16:26:38.766Z,20.40
2022-12-14T16:29:48.070Z,19.90
2022-12-14T16:33:06.575Z,17.63
2022-12-14T16:36:22.706Z,21.48
2022-12-14T16:39:32.542Z,26.23
2022-12-14T16:42:36.414Z,20.13
2022-12-14T16:46:06.300Z,20.23
2022-12-14T16:49:31.016Z,16.55
2022-12-14T16:52:37.660Z,14.90
2022-12-14T16:56:14.997Z,23.33
2022-12-14T16:59:42.261Z,16.58
2022-12-14T17:02:55.847Z,15.68
2022-12-14T17:06:05.499Z,16.20
2022-12-14T17:09:20.107Z,13.18
2022-12-14T17:12:24.140Z,13.45
2022-12-14T17:15:28.481Z,15.52
2022-12-14T17:18:34.433Z,13.13
2022-12-14T17:21:37.150Z,16.00
2022-12-14T17:24:39.491Z,13.52
2022-12-14T17:27:42.082Z,13.50
2022-12-14T17:30:44.131Z,15.07
2022-12-14T17:33:46.211Z,17.30
2022-12-14T17:36:48.339Z,20.05
2022-12-14T17:39:51.073Z,17.95
2022-12-14T17:42:56.256Z,18.65
2022-12-14T17:46:01.398Z,15.90
2022-12-14T17:49:06.799Z,15.10
2022-12-14T17:52:36.881Z,14.00
2022-12-14T17:55:38.952Z,13.80
2022-12-14T17:58:41.134Z,17.67
2022-12-14T18:01:45.738Z,10.90
2022-12-14T18:04:52.175Z,11.55
2022-12-14T18:07:54.842Z,13.25
2022-12-14T18:11:01.045Z,18.23
2022-12-14T18:14:03.703Z,13.13
2022-12-14T18:17:11.165Z,13.40
2022-12-14T18:20:14.321Z,17.48
2022-12-14T18:23:17.660Z,12.57
2022-12-14T18:26:21.272Z,11.93
2022-12-14T18:29:23.428Z,15.98
2022-12-14T18:32:25.836Z,11.90
2022-12-14T18:35:31.527Z,13.88
2022-12-14T18:38:33.511Z,11.40
2022-12-14T18:41:35.827Z,10.90
2022-12-14T18:44:38.822Z,10.45
2022-12-14T18:47:42.457Z,11.60
2022-12-14T18:50:46.301Z,10.70
2022-12-14T18:53:54.782Z,8.80
2022-12-14T18:56:57.267Z,13.20
2022-12-14T19:00:00.002Z,10.88
2022-12-14T19:03:03.758Z,11.70
2022-12-14T19:06:42.372Z,10.50
2022-12-14T19:09:31.213Z,10.57
2022-12-14T19:12:35.503Z,9.55
2022-12-14T19:15:37.751Z,11.75
2022-12-14T19:18:39.957Z,13.27
2022-12-14T19:21:42.296Z,14.35
2022-12-14T19:24:47.804Z,10.45
2022-12-14T19:28:56.099Z,10.90
2022-12-14T19:31:17.333Z,9.23
2022-12-14T19:34:19.785Z,11.90
2022-12-14T19:37:23.209Z,10.93
2022-12-14T19:40:26.860Z,7.97
2022-12-14T19:43:30.551Z,7.70
2022-12-14T19:46:32.917Z,11.57
2022-12-14T19:49:34.970Z,9.55
2022-12-14T19:52:38.623Z,7.32
2022-12-14T19:55:40.813Z,7.15
2022-12-14T19:58:43.622Z,7.53
2022-12-14T20:01:48.154Z,9.55
2022-12-14T20:04:50.887Z,7.90
2022-12-14T20:07:52.964Z,9.45
2022-12-14T20:10:55.163Z,7.53
2022-12-14T20:14:02.950Z,9.02
2022-12-14T20:17:11.262Z,10.05
2022-12-14T20:20:13.867Z,9.52
2022-12-14T20:23:15.945Z,9.50
2022-12-14T20:26:21.088Z,10.52
2022-12-14T20:29:23.695Z,6.78
2022-12-14T20:32:28.567Z,13.50
2022-12-14T20:35:53.702Z,12.38
2022-12-14T20:39:01.850Z,6.55
2022-12-14T20:42:04.118Z,9.48
2022-12-14T20:45:11.898Z,8.82
2022-12-14T20:48:14.061Z,7.53
2022-12-14T20:51:16.274Z,7.32
2022-12-14T20:54:22.388Z,7.13
2022-12-14T20:57:35.998Z,16.35
2022-12-14T21:00:38.110Z,7.70
2022-12-14T21:03:42.520Z,9.07
2022-12-14T21:06:44.817Z,7.57
2022-12-14T21:09:46.986Z,7.45
2022-12-14T21:12:49.264Z,6.88
2022-12-14T21:16:01.418Z,5.28
2022-12-14T21:19:05.882Z,7.50
2022-12-14T21:22:14.662Z,7.68
2022-12-14T21:25:16.822Z,7.45
2022-12-14T21:28:18.979Z,7.43
2022-12-14T21:31:25.235Z,11.63
2022-12-14T21:34:30.236Z,5.05
2022-12-14T21:37:32.510Z,7.80
2022-12-14T21:40:54.417Z,6.32
2022-12-14T21:43:59.378Z,6.38
2022-12-14T21:47:01.870Z,8.55
2022-12-14T21:50:06.001Z,8.15
2022-12-14T21:53:08.498Z,14.00
2022-12-14T21:56:30.435Z,10.57
2022-12-14T21:59:35.796Z,6.95
2022-12-14T22:02:37.999Z,33.20
2022-12-14T22:05:45.118Z,5.50
2022-12-14T22:08:47.580Z,8.95
2022-12-14T22:11:50.769Z,10.25
2022-12-14T22:14:55.671Z,8.02
2022-12-14T22:17:58.002Z,7.07
2022-12-14T22:21:06.810Z,5.25
2022-12-14T22:24:10.136Z,6.80
2022-12-14T22:27:12.938Z,6.63
2022-12-14T22:30:15.511Z,5.97
2022-12-14T22:33:17.628Z,7.88
2022-12-14T22:36:19.629Z,7.70
2022-12-14T22:39:21.602Z,5.75
2022-12-14T22:42:23.640Z,6.72
2022-12-14T22:45:27.739Z,7.68
2022-12-14T22:48:33.919Z,6.47
2022-12-14T22:51:38.175Z,6.07
2022-12-14T22:54:42.866Z,5.25
2022-12-14T22:57:47.345Z,5.47
2022-12-14T23:00:50.006Z,7.00
2022-12-14T23:03:53.151Z,4.57
2022-12-14T23:06:55.733Z,4.50
2022-12-14T23:10:16.502Z,4.43
2022-12-14T23:13:37.337Z,7.20
2022-12-14T23:16:58.084Z,4.15
2022-12-14T23:20:18.995Z,5.10
2022-12-14T23:23:42.111Z,9.60
2022-12-14T23:27:09.649Z,5.63
2022-12-14T23:30:30.952Z,8.00
2022-12-14T23:33:51.921Z,4.40
2022-12-14T23:37:17.993Z,6.25
2022-12-14T23:40:41.930Z,3.35
2022-12-14T23:44:02.733Z,7.03
2022-12-14T23:47:23.636Z,6.47
2022-12-14T23:50:45.874Z,6.78
2022-12-14T23:54:07.950Z,8.20
2022-12-14T23:57:28.728Z,6.68
